Miccosukee, Florida
Current Conditions -  °F | °C
As of 4:53 PM on Tuesday 25 Nov 2014 (Local Time) from KTLH Reporting Station
Light Rain Light Rain  
Wind Chill: 13°   Ceiling: 700
Heat Index: 13°   Visibility: 10mi
Dew Point: 11°   Wind: 6mph
Humidity: 89%   Direction: 20°NNE
Pressure: 29.97"   Gusts: NA
Location:  30.59°N, 84.04°W
Report Text: KTLH 252053Z 02005KT 10SM -RA OVC007 13/11 A2997 RMK AO2 RAB1958 SLP148 P0005 60009 T01280111 56021
Loading
Personal Weather Stations






























Interactive Weather Map New forecast layout! Learn more

10-Day Weather Forecast

Advertisements
Track Severe Weather on mobile